Time;durP1;ratioP1;P1;durP2;ratioP2;P2;SDS_P1;SDS_P2;PMS_P1;PMS_P2;Temp;Humidity;BMP_temperature;BMP_pressure;BME280_temperature;BME280_humidity;BME280_pressure;Samples;Min_cycle;Max_cycle;Signal;HPM_P1;HPM_P2
2022/11/12 00:00:58;;;;;;;7.65;5.75;;;;;;;9.14;100.00;62931.03;4900386;29;20230;-76
2022/11/12 00:03:25;;;;;;;6.28;4.95;;;;;;;9.23;100.00;62947.44;4909030;29;20240;-76
2022/11/12 00:05:52;;;;;;;5.00;3.80;;;;;;;9.08;100.00;62935.00;4909003;29;20202;-76
2022/11/12 00:08:19;;;;;;;8.77;7.38;;;;;;;9.10;100.00;62931.47;4908444;29;20222;-77
2022/11/12 00:10:46;;;;;;;8.27;6.78;;;;;;;9.21;100.00;62945.88;4908613;29;20390;-76
2022/11/12 00:13:14;;;;;;;8.07;6.57;;;;;;;9.16;100.00;62942.75;4911829;29;20199;-77
2022/11/12 00:15:42;;;;;;;9.73;6.97;;;;;;;9.26;100.00;62953.59;4908275;29;20218;-76
2022/11/12 00:18:09;;;;;;;10.60;7.22;;;;;;;9.23;100.00;62947.94;4907054;29;20242;-76
2022/11/12 00:20:36;;;;;;;6.72;6.00;;;;;;;9.25;100.00;62957.66;4907982;29;20242;-76
2022/11/12 00:23:03;;;;;;;7.57;6.60;;;;;;;9.29;100.00;62958.72;4908902;29;20202;-76
2022/11/12 00:25:30;;;;;;;7.00;6.30;;;;;;;9.27;100.00;62954.63;4909480;29;20269;-76
2022/11/12 00:28:02;;;;;;;6.80;6.10;;;;;;;9.35;100.00;62960.34;4908152;29;20241;-77
2022/11/12 00:30:29;;;;;;;6.03;5.38;;;;;;;9.31;100.00;62958.25;4909509;29;20214;-77
2022/11/12 00:32:57;;;;;;;7.57;6.50;;;;;;;9.26;100.00;62948.00;4908211;29;20238;-76
2022/11/12 00:35:24;;;;;;;7.38;6.45;;;;;;;9.11;100.00;62935.53;4909093;29;20203;-76
2022/11/12 00:37:54;;;;;;;12.15;9.35;;;;;;;8.84;100.00;62907.13;4907618;29;20623;-77
2022/11/12 00:40:21;;;;;;;26.17;14.18;;;;;;;8.64;100.00;62889.53;4911405;29;20316;-76
2022/11/12 00:42:48;;;;;;;18.95;12.32;;;;;;;8.67;100.00;62889.56;4908826;29;20226;-77
2022/11/12 00:45:15;;;;;;;25.45;14.43;;;;;;;8.82;100.00;62905.06;4908142;29;20219;-76
2022/11/12 00:47:42;;;;;;;23.25;14.50;;;;;;;8.89;100.00;62912.28;4907913;29;20226;-77
2022/11/12 00:50:10;;;;;;;24.30;16.58;;;;;;;8.97;100.00;62925.66;4909062;29;20209;-77
2022/11/12 00:52:37;;;;;;;28.65;14.00;;;;;;;9.00;100.00;62923.66;4908765;29;20222;-77
2022/11/12 00:55:04;;;;;;;20.58;14.02;;;;;;;9.04;100.00;62925.78;4910379;29;20231;-77
2022/11/12 00:57:31;;;;;;;22.23;14.43;;;;;;;9.12;100.00;62931.00;4908520;29;20263;-76
2022/11/12 00:59:58;;;;;;;21.02;12.60;;;;;;;9.10;100.00;62934.00;4908388;29;20234;-77
2022/11/12 01:02:25;;;;;;;19.75;12.98;;;;;;;9.05;100.00;62926.81;4908325;29;20251;-75
2022/11/12 01:04:52;;;;;;;23.40;13.85;;;;;;;8.84;100.00;62905.09;4907342;29;20238;-77
2022/11/12 01:07:20;;;;;;;21.98;13.48;;;;;;;8.97;100.00;62923.63;4908437;29;20223;-76
2022/11/12 01:09:47;;;;;;;23.77;13.60;;;;;;;9.04;100.00;62933.38;4909729;29;20199;-77
2022/11/12 01:12:13;;;;;;;22.15;13.63;;;;;;;9.07;100.00;62930.91;4906619;29;20224;-76
2022/11/12 01:14:40;;;;;;;18.85;12.20;;;;;;;9.00;100.00;62924.19;4907708;29;20243;-77
2022/11/12 01:17:07;;;;;;;21.30;13.63;;;;;;;9.10;100.00;62937.06;4908718;29;20223;-76
2022/11/12 01:19:34;;;;;;;19.30;12.60;;;;;;;9.06;100.00;62932.91;4908313;29;20267;-77
2022/11/12 01:22:01;;;;;;;21.35;14.35;;;;;;;8.93;100.00;62916.94;4905779;29;20234;-77
2022/11/12 01:24:29;;;;;;;22.83;15.50;;;;;;;8.87;100.00;62908.22;4909735;29;20487;-76
2022/11/12 01:26:56;;;;;;;23.52;13.90;;;;;;;8.72;100.00;62894.72;4909503;29;20226;-76
2022/11/12 01:29:23;;;;;;;19.75;13.77;;;;;;;8.64;100.00;62891.53;4897297;29;20247;-77
2022/11/12 01:31:50;;;;;;;24.13;13.15;;;;;;;8.52;100.00;62877.13;4902971;29;20452;-76
2022/11/12 01:34:17;;;;;;;26.67;14.80;;;;;;;8.50;100.00;62869.97;4906024;29;20610;-77
2022/11/12 01:36:43;;;;;;;28.02;16.73;;;;;;;8.50;100.00;62872.53;4905735;29;20223;-76
2022/11/12 01:39:10;;;;;;;33.95;17.73;;;;;;;8.39;100.00;62863.69;4893096;29;20222;-77
2022/11/12 01:41:39;;;;;;;34.63;17.42;;;;;;;8.25;100.00;62846.69;4893070;29;20227;-77
2022/11/12 01:44:08;;;;;;;37.33;19.17;;;;;;;8.38;100.00;62857.59;4903914;29;20202;-76
2022/11/12 01:46:39;;;;;;;34.72;19.70;;;;;;;8.49;100.00;62871.47;4911689;29;20223;-75
2022/11/12 01:49:10;;;;;;;28.27;17.45;;;;;;;8.53;100.00;62873.09;4910190;29;20250;-77
2022/11/12 01:51:43;;;;;;;32.42;18.33;;;;;;;8.51;100.00;62873.03;4911975;29;20222;-76
2022/11/12 01:54:16;;;;;;;31.73;18.85;;;;;;;8.55;100.00;62877.16;4911555;29;20215;-76
2022/11/12 01:56:44;;;;;;;29.70;18.00;;;;;;;8.62;100.00;62884.91;4912832;29;20395;-76
2022/11/12 01:59:15;;;;;;;28.58;16.52;;;;;;;8.68;100.00;62893.66;4909636;29;20203;-76
2022/11/12 02:01:42;;;;;;;38.78;18.98;;;;;;;8.69;100.00;62891.63;4912252;29;20246;-76
2022/11/12 02:04:09;;;;;;;27.30;17.30;;;;;;;8.71;100.00;62893.69;4911751;29;20440;-77
2022/11/12 02:06:37;;;;;;;30.42;16.70;;;;;;;8.68;100.00;62888.56;4910392;29;20274;-76
2022/11/12 02:09:05;;;;;;;24.27;16.00;;;;;;;8.68;100.00;62883.00;4911220;29;20206;-76
2022/11/12 02:11:32;;;;;;;29.13;16.73;;;;;;;8.68;100.00;62890.59;4910566;29;20243;-76
2022/11/12 02:14:00;;;;;;;24.52;14.90;;;;;;;8.67;100.00;62887.53;4910609;29;20202;-75
2022/11/12 02:16:30;;;;;;;21.75;13.82;;;;;;;8.73;100.00;62895.78;4910835;29;20223;-76
2022/11/12 02:18:57;;;;;;;21.90;13.93;;;;;;;8.77;100.00;62902.94;4910914;29;20195;-75
2022/11/12 02:21:26;;;;;;;23.95;15.80;;;;;;;8.81;100.00;62904.03;4910626;29;20309;-77
2022/11/12 02:24:04;;;;;;;24.20;15.88;;;;;;;8.73;100.00;62895.78;4911054;29;20238;-76
2022/11/12 02:26:34;;;;;;;22.80;14.23;;;;;;;8.71;100.00;62893.69;4910515;29;20230;-76
2022/11/12 02:29:01;;;;;;;24.05;14.60;;;;;;;8.76;100.00;62898.88;4910687;29;20213;-76
2022/11/12 02:31:28;;;;;;;21.17;14.25;;;;;;;8.80;100.00;62900.47;4911272;29;20227;-76
2022/11/12 02:33:55;;;;;;;24.55;15.02;;;;;;;8.77;100.00;62899.88;4910837;29;20203;-77
2022/11/12 02:36:23;;;;;;;17.77;11.93;;;;;;;8.71;100.00;62891.16;4910533;29;20438;-76
2022/11/12 02:38:51;;;;;;;16.63;9.85;;;;;;;8.70;100.00;62892.66;4905513;29;20199;-76
2022/11/12 02:41:19;;;;;;;11.57;9.10;;;;;;;8.58;100.00;62875.19;4910574;29;20272;-76
2022/11/12 02:43:45;;;;;;;12.27;8.55;;;;;;;8.46;100.00;62867.88;4910071;29;20230;-76
2022/11/12 02:46:13;;;;;;;12.05;8.27;;;;;;;8.53;100.00;62875.09;4908904;29;20223;-76
2022/11/12 02:48:39;;;;;;;12.50;8.15;;;;;;;8.55;100.00;62877.16;4910393;29;20210;-76
2022/11/12 02:51:07;;;;;;;16.75;11.98;;;;;;;8.63;100.00;62887.97;4903524;29;20234;-77
2022/11/12 02:53:35;;;;;;;18.58;12.85;;;;;;;8.67;100.00;62894.63;4907609;29;20258;-78
2022/11/12 02:56:03;;;;;;;18.80;12.13;;;;;;;8.67;100.00;62887.53;4910478;29;20246;-76
2022/11/12 02:58:31;;;;;;;18.40;11.25;;;;;;;8.70;100.00;62893.19;4910185;29;20446;-76
2022/11/12 03:00:58;;;;;;;17.42;11.75;;;;;;;8.70;100.00;62893.19;4909098;29;20297;-76
2022/11/12 03:03:25;;;;;;;17.85;11.40;;;;;;;8.75;100.00;62897.84;4910272;29;20245;-77
2022/11/12 03:05:56;;;;;;;17.33;9.77;;;;;;;8.76;100.00;62901.41;4910121;29;20250;-76
2022/11/12 03:08:23;;;;;;;15.95;9.85;;;;;;;8.70;100.00;62892.66;4910178;29;20392;-76
2022/11/12 03:10:50;;;;;;;9.57;7.40;;;;;;;8.57;100.00;62879.22;4908837;29;20207;-76
2022/11/12 03:13:19;;;;;;;8.43;6.75;;;;;;;8.26;100.00;62847.72;4909905;29;20560;-76
2022/11/12 03:15:46;;;;;;;5.50;4.47;;;;;;;8.26;100.00;62849.75;4909536;29;20285;-76
2022/11/12 03:18:13;;;;;;;5.78;4.47;;;;;;;8.00;100.00;62820.88;4910140;29;20198;-77
2022/11/12 03:20:40;;;;;;;5.53;4.55;;;;;;;7.87;100.00;62810.47;4908446;29;20567;-76
2022/11/12 03:23:09;;;;;;;4.57;3.60;;;;;;;7.94;100.00;62815.19;4907905;29;20203;-76
2022/11/12 03:25:36;;;;;;;4.00;3.60;;;;;;;7.78;100.00;62798.66;4909541;29;20370;-75
2022/11/12 03:28:05;;;;;;;4.45;4.05;;;;;;;7.60;100.00;62782.63;4908566;29;20251;-75
2022/11/12 03:30:36;;;;;;;4.07;3.78;;;;;;;7.48;100.00;62772.75;4909481;29;20355;-76
2022/11/12 03:33:03;;;;;;;3.72;3.42;;;;;;;7.44;100.00;62763.56;4906365;29;20395;-75
2022/11/12 03:35:31;;;;;;;3.85;3.50;;;;;;;7.48;100.00;62767.19;4909951;29;20207;-76
2022/11/12 03:37:58;;;;;;;4.22;3.50;;;;;;;7.52;100.00;62771.84;4907815;29;20458;-75
2022/11/12 03:40:26;;;;;;;4.57;4.03;;;;;;;7.58;100.00;62783.09;4908770;29;20254;-76
2022/11/12 03:42:53;;;;;;;3.13;2.92;;;;;;;7.57;100.00;62777.00;4908373;29;20261;-76
2022/11/12 03:45:22;;;;;;;4.35;3.95;;;;;;;7.52;100.00;62771.84;4909524;29;20305;-76
2022/11/12 03:47:52;;;;;;;3.67;3.38;;;;;;;7.51;100.00;62770.78;4907236;29;20271;-76
2022/11/12 03:50:21;;;;;;;3.85;3.50;;;;;;;7.51;100.00;62773.31;4910182;29;20199;-76
2022/11/12 03:52:49;;;;;;;3.50;3.13;;;;;;;7.53;100.00;62770.31;4909969;29;20223;-76
2022/11/12 03:55:18;;;;;;;4.18;3.88;;;;;;;7.50;100.00;62772.28;4908032;29;20270;-76
2022/11/12 03:57:45;;;;;;;4.18;3.78;;;;;;;7.52;100.00;62769.28;4890226;29;20531;-77
2022/11/12 04:00:13;;;;;;;3.58;3.28;;;;;;;7.63;100.00;62782.66;4890040;29;20472;-76
2022/11/12 04:02:40;;;;;;;3.28;3.00;;;;;;;7.68;100.00;62790.38;4890914;29;20599;-76
2022/11/12 04:10:43;;;;;;;4.05;3.65;;;;;;;7.61;100.00;62780.59;4909574;29;20231;-76
2022/11/12 04:13:28;;;;;;;5.70;3.63;;;;;;;7.51;100.00;62767.72;4907731;29;20227;-76
2022/11/12 04:26:57;;;;;;;3.92;3.63;;;;;;;7.25;100.00;62743.94;4893037;29;20437;-76
2022/11/12 04:32:08;;;;;;;4.75;4.03;;;;;;;7.14;100.00;62732.63;4908036;29;20258;-77
2022/11/12 04:34:35;;;;;;;4.25;3.92;;;;;;;7.16;100.00;62734.69;4907857;29;20207;-77
2022/11/12 04:37:04;;;;;;;3.60;3.30;;;;;;;7.07;100.00;62725.38;4910072;29;20223;-77
2022/11/12 04:39:31;;;;;;;3.65;3.35;;;;;;;6.89;100.00;62709.88;4908214;29;20226;-76
2022/11/12 04:45:02;;;;;;;5.65;3.65;;;;;;;6.86;100.00;62706.78;4909686;29;20204;-76
2022/11/12 04:47:33;;;;;;;3.65;3.35;;;;;;;6.81;100.00;62696.56;4908599;29;20421;-76
2022/11/12 04:50:01;;;;;;;3.92;3.53;;;;;;;6.80;100.00;62700.06;4908133;29;20239;-77
2022/11/12 04:52:30;;;;;;;4.70;3.40;;;;;;;6.80;100.00;62700.56;4906603;29;20222;-76
2022/11/12 04:54:57;;;;;;;3.38;3.17;;;;;;;6.67;100.00;62687.19;4907880;29;20386;-76
2022/11/12 04:57:25;;;;;;;4.22;3.80;;;;;;;6.55;100.00;62671.75;4908358;29;20225;-75
2022/11/12 04:59:52;;;;;;;4.25;3.58;;;;;;;6.65;100.00;62687.63;4907010;29;20203;-76
2022/11/12 05:02:18;;;;;;;4.40;3.38;;;;;;;6.71;100.00;62688.25;4909691;29;20234;-76
2022/11/12 05:04:45;;;;;;;4.65;3.33;;;;;;;6.78;100.00;62695.97;4912014;29;20226;-76
2022/11/12 05:07:13;;;;;;;6.80;4.30;;;;;;;6.89;100.00;62704.81;4912544;29;20226;-76
2022/11/12 05:09:41;;;;;;;5.20;3.75;;;;;;;6.91;100.00;62711.41;4910030;29;20206;-76
2022/11/12 05:12:08;;;;;;;4.13;3.47;;;;;;;6.91;100.00;62714.47;4912022;29;20234;-76
2022/11/12 05:14:36;;;;;;;4.53;4.18;;;;;;;7.01;100.00;62724.25;4912511;29;20207;-79
2022/11/12 05:17:02;;;;;;;4.72;3.72;;;;;;;7.06;100.00;62724.34;4912381;29;20293;-76
2022/11/12 05:19:30;;;;;;;4.25;3.83;;;;;;;7.18;100.00;62741.28;4913661;29;20246;-76
2022/11/12 05:22:05;;;;;;;4.47;4.07;;;;;;;7.19;100.00;62740.31;4910968;29;20289;-76
2022/11/12 05:24:33;;;;;;;5.40;3.92;;;;;;;7.29;100.00;62752.63;4912827;29;20229;-77
2022/11/12 05:27:01;;;;;;;4.90;4.07;;;;;;;7.34;100.00;62755.25;4910356;29;20218;-76
2022/11/12 05:29:28;;;;;;;5.57;4.25;;;;;;;7.39;100.00;62755.34;4911736;29;20198;-76
2022/11/12 05:31:56;;;;;;;4.07;3.78;;;;;;;7.42;100.00;62766.06;4903082;29;20222;-76
2022/11/12 05:34:23;;;;;;;6.68;4.45;;;;;;;7.53;100.00;62772.84;4915667;29;20209;-77
2022/11/12 05:36:50;;;;;;;5.20;4.75;;;;;;;7.55;100.00;62776.94;4900211;29;20267;-76
2022/11/12 05:39:17;;;;;;;4.15;3.83;;;;;;;7.54;100.00;62775.91;4905338;29;20207;-76
2022/11/12 05:41:43;;;;;;;4.63;4.18;;;;;;;7.56;100.00;62772.91;4895451;29;20242;-76
2022/11/12 05:44:15;;;;;;;4.45;3.70;;;;;;;7.61;100.00;62781.09;4893387;29;20409;-77
2022/11/12 05:46:42;;;;;;;4.43;4.05;;;;;;;7.69;100.00;62791.38;4902974;29;20295;-76
2022/11/12 05:49:08;;;;;;;4.88;4.28;;;;;;;7.69;100.00;62788.84;4905908;29;20215;-76
2022/11/12 05:51:36;;;;;;;5.82;4.88;;;;;;;7.71;100.00;62790.91;4898991;29;20482;-77
2022/11/12 05:54:05;;;;;;;5.18;4.68;;;;;;;7.75;100.00;62797.56;4904686;29;20429;-75
2022/11/12 05:56:32;;;;;;;5.88;5.00;;;;;;;7.76;100.00;62796.59;4911979;29;20227;-76
2022/11/12 05:58:59;;;;;;;5.85;5.10;;;;;;;7.74;100.00;62794.53;4908659;29;20209;-76
2022/11/12 06:04:41;;;;;;;5.57;4.32;;;;;;;7.95;100.00;62818.75;4889970;29;20218;-77
2022/11/12 06:07:08;;;;;;;4.55;4.20;;;;;;;8.08;100.00;62829.63;4908312;29;20218;-77
2022/11/12 06:09:38;;;;;;;9.15;4.40;;;;;;;8.17;100.00;62841.47;4913645;29;20262;-78
2022/11/12 06:12:08;;;;;;;4.65;4.28;;;;;;;8.25;100.00;62846.19;4914707;29;20385;-80
2022/11/12 06:14:38;;;;;;;5.75;4.60;;;;;;;8.36;100.00;62858.06;4911980;29;20503;-76
2022/11/12 06:17:05;;;;;;;5.05;4.13;;;;;;;8.44;99.11;62863.28;4908724;29;20227;-75
2022/11/12 06:19:34;;;;;;;4.15;3.83;;;;;;;8.45;100.00;62866.84;4898373;29;20563;-76
2022/11/12 06:22:02;;;;;;;5.63;4.00;;;;;;;8.45;96.83;62866.84;4909162;29;20231;-76
2022/11/12 06:24:29;;;;;;;4.85;4.38;;;;;;;8.34;94.32;62852.94;4914224;29;20270;-77
2022/11/12 06:26:56;;;;;;;8.27;4.47;;;;;;;8.30;94.36;62854.38;4920545;29;20254;-76
2022/11/12 06:29:23;;;;;;;4.55;4.13;;;;;;;8.29;94.49;62850.31;4907943;29;20217;-77
2022/11/12 06:31:52;;;;;;;5.93;4.88;;;;;;;8.31;95.13;62852.91;4891904;29;20250;-76
2022/11/12 06:34:19;;;;;;;6.40;4.50;;;;;;;8.32;94.34;62858.50;4895383;29;20205;-76
2022/11/12 06:36:47;;;;;;;5.53;5.00;;;;;;;8.29;94.10;62852.84;4911400;29;20298;-76
2022/11/12 06:39:16;;;;;;;4.57;4.18;;;;;;;8.31;93.79;62855.44;4904543;29;20199;-76
2022/11/12 06:41:43;;;;;;;4.43;4.07;;;;;;;8.09;95.56;62830.66;4910685;29;20297;-76
2022/11/12 06:44:12;;;;;;;5.25;4.30;;;;;;;8.11;95.38;62832.22;4897491;29;20262;-76
2022/11/12 06:46:39;;;;;;;5.63;4.97;;;;;;;8.13;95.54;62834.81;4904950;29;20225;-76
2022/11/12 06:49:06;;;;;;;6.25;4.35;;;;;;;8.12;94.92;62836.31;4903720;29;20524;-76
2022/11/12 06:51:35;;;;;;;5.57;5.05;;;;;;;8.13;95.67;62837.34;4898590;29;20230;-76
2022/11/12 06:54:03;;;;;;;5.13;4.63;;;;;;;8.20;95.83;62844.56;4910420;29;20369;-77
2022/11/12 06:56:31;;;;;;;6.63;4.95;;;;;;;8.19;94.25;62843.53;4909907;29;20270;-77
2022/11/12 06:58:58;;;;;;;5.57;4.70;;;;;;;8.25;94.31;62846.69;4908189;29;20207;-77
2022/11/12 07:01:27;;;;;;;5.65;5.07;;;;;;;8.38;93.43;62865.19;4897882;29;20262;-76
2022/11/12 07:03:54;;;;;;;5.30;4.20;;;;;;;8.51;92.88;62873.53;4910369;29;20205;-78
2022/11/12 07:06:21;;;;;;;5.00;4.32;;;;;;;8.71;92.27;62891.69;4911584;29;20227;-77
2022/11/12 07:08:49;;;;;;;7.97;5.22;;;;;;;8.86;92.16;62914.28;4902999;29;20222;-77
2022/11/12 07:11:16;;;;;;;7.05;5.45;;;;;;;8.88;92.68;62911.78;4905238;29;20270;-78
2022/11/12 07:13:46;;;;;;;9.30;6.50;;;;;;;8.82;90.82;62905.06;4911741;29;20324;-78
2022/11/12 07:16:17;;;;;;;11.85;8.68;;;;;;;8.94;90.55;62917.47;4909577;29;20246;-77
2022/11/12 07:18:45;;;;;;;8.23;5.68;;;;;;;9.10;89.55;62931.97;4910376;29;20199;-79
2022/11/12 07:21:15;;;;;;;5.03;4.55;;;;;;;9.16;88.13;62942.75;4909857;29;20246;-77
2022/11/12 07:23:42;;;;;;;4.93;4.43;;;;;;;9.25;88.06;62950.03;4910298;29;20199;-78
2022/11/12 07:26:21;;;;;;;5.20;4.30;;;;;;;9.19;87.52;62943.31;4907515;29;20219;-78
2022/11/12 07:28:52;;;;;;;7.07;4.38;;;;;;;9.15;87.58;62944.25;4909488;29;20198;-78
2022/11/12 07:31:20;;;;;;;5.28;4.63;;;;;;;9.20;87.88;62941.78;4910494;29;20223;-78
2022/11/12 07:33:48;;;;;;;4.93;4.53;;;;;;;9.40;87.60;62965.03;4909657;29;20247;-78
2022/11/12 07:36:16;;;;;;;5.90;4.60;;;;;;;9.62;87.18;62984.69;4908145;29;20254;-79
2022/11/12 07:38:44;;;;;;;5.80;5.20;;;;;;;9.45;86.00;62972.72;4910003;29;20382;-78
2022/11/12 07:41:14;;;;;;;5.25;4.80;;;;;;;9.54;88.15;62984.59;4909729;29;20533;-79
2022/11/12 07:43:42;;;;;;;5.50;4.60;;;;;;;9.62;88.09;62984.69;4902040;29;20230;-78
2022/11/12 07:46:13;;;;;;;5.78;5.18;;;;;;;9.80;88.07;63008.41;4892017;29;20615;-77
2022/11/12 07:48:40;;;;;;;7.07;5.75;;;;;;;9.79;86.82;63007.88;4891526;29;20192;-78
2022/11/12 07:51:12;;;;;;;6.38;5.63;;;;;;;10.10;85.97;63034.88;4893012;29;20286;-78
2022/11/12 07:53:43;;;;;;;5.68;5.15;;;;;;;10.19;84.31;63048.78;4894524;29;20207;-78
2022/11/12 07:56:12;;;;;;;4.85;4.35;;;;;;;10.24;81.03;63051.41;4890800;29;20234;-77
2022/11/12 07:58:39;;;;;;;5.88;4.93;;;;;;;10.35;80.85;63063.28;4890663;29;20219;-78
2022/11/12 08:01:23;;;;;;;9.05;5.45;;;;;;;10.34;80.12;63059.19;4893228;29;20239;-78
2022/11/12 08:03:49;;;;;;;6.13;4.93;;;;;;;10.28;80.59;63058.59;4890833;29;20200;-77
2022/11/12 08:06:16;;;;;;;7.15;5.93;;;;;;;10.31;81.00;63059.16;4890773;29;20231;-77
2022/11/12 08:08:43;;;;;;;6.00;5.40;;;;;;;10.38;81.13;63068.44;4890794;29;20204;-77
2022/11/12 08:11:10;;;;;;;6.03;5.38;;;;;;;10.12;81.77;63038.97;4900904;29;20229;-78
2022/11/12 08:13:40;;;;;;;5.10;4.53;;;;;;;10.10;83.22;63039.97;4909891;29;20385;-78
2022/11/12 08:16:07;;;;;;;6.18;4.75;;;;;;;10.05;84.16;63034.25;4909295;29;20262;-78
2022/11/12 08:18:36;;;;;;;7.15;5.05;;;;;;;9.99;84.56;63026.03;4909448;29;20241;-77
2022/11/12 08:21:05;;;;;;;6.38;5.70;;;;;;;9.88;85.13;63017.19;4910046;29;20231;-77
2022/11/12 08:23:32;;;;;;;5.88;5.28;;;;;;;9.73;84.69;63003.72;4909564;29;20206;-78
2022/11/12 08:25:59;;;;;;;5.30;4.90;;;;;;;9.71;86.00;63001.63;4909476;29;20226;-80
2022/11/12 08:28:28;;;;;;;5.57;5.07;;;;;;;9.71;86.08;62997.06;4908985;29;20419;-78
2022/11/12 08:30:55;;;;;;;5.95;5.38;;;;;;;9.65;87.27;62990.88;4909785;29;20246;-78
2022/11/12 08:33:23;;;;;;;5.00;4.60;;;;;;;9.62;87.99;62992.31;4910570;29;20236;-78
2022/11/12 08:35:51;;;;;;;5.72;5.18;;;;;;;9.74;88.24;63000.19;4909113;29;20243;-77
2022/11/12 08:38:18;;;;;;;6.18;4.65;;;;;;;9.44;88.55;62974.22;4909191;29;20202;-78
2022/11/12 08:40:44;;;;;;;7.53;4.78;;;;;;;9.72;87.23;62998.09;4909098;29;20203;-77
2022/11/12 08:43:12;;;;;;;4.78;4.38;;;;;;;9.89;85.55;63012.63;4908561;29;20234;-79
2022/11/12 08:45:40;;;;;;;6.90;4.32;;;;;;;9.82;86.95;63007.94;4910586;29;20250;-78
2022/11/12 08:48:09;;;;;;;4.13;3.80;;;;;;;9.71;85.89;63001.63;4898401;29;20206;-78
2022/11/12 08:50:37;;;;;;;4.85;4.45;;;;;;;9.93;86.25;63021.84;4910184;29;20243;-78
2022/11/12 08:53:08;;;;;;;4.07;3.67;;;;;;;9.97;85.41;63023.97;4909958;29;20246;-79
2022/11/12 08:55:35;;;;;;;5.80;4.43;;;;;;;10.11;84.82;63043.03;4909164;29;20217;-78
2022/11/12 08:58:02;;;;;;;7.45;5.40;;;;;;;10.40;83.23;63065.94;4909005;29;20399;-79
2022/11/12 09:00:30;;;;;;;4.90;4.40;;;;;;;10.69;81.19;63097.97;4909085;29;20203;-78
2022/11/12 09:02:59;;;;;;;5.57;5.03;;;;;;;10.56;79.88;63089.59;4911050;29;20238;-78
2022/11/12 09:05:27;;;;;;;4.35;4.00;;;;;;;10.56;81.54;63086.53;4894715;29;20203;-79
2022/11/12 09:07:58;;;;;;;4.88;4.47;;;;;;;10.68;80.82;63102.03;4890757;29;20233;-78
2022/11/12 09:10:26;;;;;;;4.97;4.55;;;;;;;10.80;79.02;63108.84;4890418;29;20262;-80
2022/11/12 09:12:53;;;;;;;5.47;4.50;;;;;;;10.69;78.63;63094.91;4891249;29;20227;-79
2022/11/12 09:15:21;;;;;;;5.28;4.78;;;;;;;10.93;78.30;63122.81;4891636;29;20211;-78
2022/11/12 09:17:48;;;;;;;4.20;3.90;;;;;;;10.97;77.32;63129.50;4892576;29;20235;-80
2022/11/12 09:20:15;;;;;;;4.53;4.22;;;;;;;11.08;75.21;63138.34;4891671;29;20227;-78
2022/11/12 09:22:41;;;;;;;4.05;3.65;;;;;;;10.77;77.46;63108.78;4891124;29;20294;-79
2022/11/12 09:25:09;;;;;;;4.38;3.97;;;;;;;11.12;74.29;63141.97;4890463;29;20275;-80
2022/11/12 09:27:37;;;;;;;5.07;3.92;;;;;;;11.06;75.13;63133.22;4891448;29;20257;-78
2022/11/12 09:30:05;;;;;;;4.20;3.83;;;;;;;11.04;75.44;63134.22;4890831;29;20260;-78
2022/11/12 09:32:32;;;;;;;4.20;3.90;;;;;;;11.14;75.80;63149.13;4892238;29;20227;-80
2022/11/12 09:34:59;;;;;;;4.63;3.90;;;;;;;11.12;74.91;63144.50;4891544;29;20244;-79
2022/11/12 09:37:26;;;;;;;5.03;4.35;;;;;;;11.27;74.43;63155.47;4891754;29;20414;-78
2022/11/12 09:39:53;;;;;;;4.93;4.40;;;;;;;11.29;74.62;63162.13;4891332;29;20439;-80
2022/11/12 09:42:23;;;;;;;4.28;3.95;;;;;;;11.13;76.00;63146.06;4893341;29;20287;-78
2022/11/12 09:44:57;;;;;;;4.50;4.13;;;;;;;11.19;75.26;63149.75;4891290;29;20203;-79
2022/11/12 09:47:27;;;;;;;6.53;4.10;;;;;;;11.08;78.39;63135.28;4893102;29;20226;-78
2022/11/12 09:50:01;;;;;;;6.10;4.88;;;;;;;10.85;79.61;63117.09;4901039;29;20235;-78
2022/11/12 09:52:29;;;;;;;4.53;4.22;;;;;;;10.65;80.11;63088.72;4911746;29;20255;-78
2022/11/12 09:55:02;;;;;;;4.75;4.32;;;;;;;10.63;81.99;63091.25;4912348;29;20203;-79
2022/11/12 09:57:39;;;;;;;4.25;3.65;;;;;;;10.69;81.92;63097.97;4914592;29;20229;-77
2022/11/12 10:00:16;;;;;;;6.38;4.25;;;;;;;10.28;82.39;63056.06;4909868;29;20487;-78
2022/11/12 10:02:51;;;;;;;4.80;3.92;;;;;;;10.21;84.01;63050.84;4913944;29;20261;-79
2022/11/12 10:05:25;;;;;;;4.00;3.70;;;;;;;10.18;82.31;63048.25;4913155;29;20381;-79
2022/11/12 10:08:05;;;;;;;3.60;2.60;;;;;;;10.62;80.09;63090.19;4904016;29;20232;-78
2022/11/12 10:10:41;;;;;;;3.08;2.88;;;;;;;10.76;78.09;63099.59;4893661;29;20206;-77
2022/11/12 10:13:22;;;;;;;3.45;3.13;;;;;;;10.90;78.47;63121.72;4894302;29;20199;-78
2022/11/12 10:19:18;;;;;;;5.03;3.65;;;;;;;10.86;78.80;63115.56;4889316;29;20277;-80
2022/11/12 10:21:54;;;;;;;4.50;3.97;;;;;;;10.80;79.96;63108.84;4894405;29;20475;-79
2022/11/12 10:24:23;;;;;;;6.70;3.70;;;;;;;10.86;79.44;63118.09;4894631;29;20219;-78
2022/11/12 10:26:50;;;;;;;4.47;3.70;;;;;;;10.73;79.81;63101.59;4897494;29;20457;-80
2022/11/12 10:29:30;;;;;;;3.72;3.53;;;;;;;10.51;79.48;63081.88;4906070;29;20251;-80
2022/11/12 10:32:01;;;;;;;4.55;4.13;;;;;;;10.72;78.86;63100.53;4913253;29;20546;-78
2022/11/12 10:34:30;;;;;;;4.88;4.40;;;;;;;10.42;81.04;63072.56;4911324;29;20410;-78
2022/11/12 10:37:01;;;;;;;5.20;3.95;;;;;;;10.26;81.94;63053.47;4912796;29;20419;-79
2022/11/12 10:39:34;;;;;;;4.55;4.15;;;;;;;10.13;83.77;63045.63;4900882;29;20222;-78
2022/11/12 10:42:07;;;;;;;4.40;4.07;;;;;;;9.97;84.54;63028.53;4901710;29;20238;-79
2022/11/12 10:44:34;;;;;;;4.88;4.47;;;;;;;9.90;87.09;63016.72;4902281;29;20207;-79
2022/11/12 10:47:22;;;;;;;3.70;3.40;;;;;;;9.93;87.66;63024.38;4894630;29;20226;-78
2022/11/12 10:50:04;;;;;;;4.15;3.85;;;;;;;10.12;86.37;63042.03;4896415;29;20259;-79
2022/11/12 10:52:31;;;;;;;4.10;3.67;;;;;;;10.16;87.27;63046.16;4908652;29;20228;-78
2022/11/12 10:55:06;;;;;;;3.92;3.47;;;;;;;10.06;86.17;63038.34;4911923;29;20228;-79
2022/11/12 10:57:33;;;;;;;4.03;3.63;;;;;;;10.01;85.55;63032.69;4910304;29;20229;-79
2022/11/12 11:00:09;;;;;;;3.42;3.13;;;;;;;9.99;86.92;63022.97;4909932;29;20333;-78
2022/11/12 11:02:37;;;;;;;3.17;2.97;;;;;;;10.03;87.79;63030.16;4906179;29;20246;-79
2022/11/12 11:05:29;;;;;;;4.30;3.90;;;;;;;10.32;87.28;63062.72;4911243;29;20250;-79
2022/11/12 11:07:57;;;;;;;3.92;3.58;;;;;;;10.40;84.36;63068.47;4910374;29;20215;-79
2022/11/12 11:10:27;;;;;;;3.90;3.60;;;;;;;10.40;85.58;63067.97;4909161;29;20214;-79
2022/11/12 11:13:09;;;;;;;3.83;3.53;;;;;;;10.68;84.09;63098.97;4906310;29;20310;-78
2022/11/12 11:15:36;;;;;;;4.75;3.65;;;;;;;10.71;84.21;63096.97;4909612;29;20251;-78
2022/11/12 11:18:04;;;;;;;3.50;3.30;;;;;;;10.86;83.54;63117.59;4908515;29;20202;-78
2022/11/12 11:20:41;;;;;;;4.57;3.53;;;;;;;11.06;82.53;63140.84;4907102;29;20202;-78
2022/11/12 11:23:17;;;;;;;3.20;3.00;;;;;;;10.98;83.51;63130.00;4909720;29;20230;-78
2022/11/12 11:25:47;;;;;;;3.13;2.92;;;;;;;10.76;82.61;63105.22;4906651;29;20246;-77
2022/11/12 11:28:28;;;;;;;3.83;3.40;;;;;;;10.70;84.22;63101.03;4903490;29;20259;-78
2022/11/12 11:31:04;;;;;;;4.90;3.63;;;;;;;10.62;85.74;63095.28;4908879;29;20307;-78
2022/11/12 11:33:43;;;;;;;4.07;3.78;;;;;;;10.66;83.90;63099.44;4909764;29;20531;-77
2022/11/12 11:36:20;;;;;;;2.75;2.55;;;;;;;10.37;84.26;63065.34;4907605;29;20280;-78
2022/11/12 11:38:57;;;;;;;3.25;2.97;;;;;;;10.24;86.00;63049.38;4908711;29;20258;-78
2022/11/12 11:41:52;;;;;;;3.55;3.25;;;;;;;10.15;87.78;63044.63;4909670;29;20226;-77
2022/11/12 11:44:30;;;;;;;2.90;2.70;;;;;;;10.18;88.17;63047.75;4906892;29;20213;-78
2022/11/12 11:47:16;;;;;;;3.00;2.78;;;;;;;10.27;87.46;63062.66;4909905;29;20302;-78
2022/11/12 11:50:09;;;;;;;3.22;2.80;;;;;;;10.09;86.13;63040.97;4906857;29;20234;-77
2022/11/12 11:52:46;;;;;;;2.95;2.75;;;;;;;9.94;86.28;63018.31;4904819;29;20259;-77
2022/11/12 11:55:26;;;;;;;3.90;3.45;;;;;;;9.73;89.74;63003.72;4908693;29;20198;-77
2022/11/12 11:58:04;;;;;;;3.38;3.03;;;;;;;9.65;90.88;62992.88;4907650;29;20222;-78
2022/11/12 12:00:40;;;;;;;4.30;3.25;;;;;;;9.90;90.00;63021.28;4907818;29;20203;-78
2022/11/12 12:03:30;;;;;;;4.03;3.20;;;;;;;9.97;90.59;63023.97;4907382;29;20286;-79
2022/11/12 12:06:18;;;;;;;4.13;3.72;;;;;;;9.96;89.40;63022.94;4909519;29;20234;-78
2022/11/12 12:09:01;;;;;;;4.82;4.25;;;;;;;10.09;89.21;63036.41;4909477;29;20195;-78
2022/11/12 12:11:35;;;;;;;4.85;4.15;;;;;;;10.20;86.81;63044.69;4907847;29;20514;-78